createdAt,value
2022-07-28T00:01:31.672Z,17.98
2022-07-28T00:04:19.738Z,17.96
2022-07-28T00:07:07.762Z,17.99
2022-07-28T00:10:00.297Z,17.90
2022-07-28T00:12:48.986Z,17.86
2022-07-28T00:15:38.443Z,17.90
2022-07-28T00:18:26.558Z,17.96
2022-07-28T00:21:14.802Z,17.93
2022-07-28T00:24:02.850Z,17.93
2022-07-28T00:26:51.025Z,17.87
2022-07-28T00:29:49.659Z,17.81
2022-07-28T00:32:39.534Z,17.78
2022-07-28T00:35:31.113Z,17.81
2022-07-28T00:38:19.826Z,17.81
2022-07-28T00:41:13.993Z,17.80
2022-07-28T00:44:02.053Z,17.77
2022-07-28T00:46:50.601Z,17.78
2022-07-28T00:49:40.514Z,17.75
2022-07-28T00:52:28.616Z,17.67
2022-07-28T00:55:16.863Z,17.70
2022-07-28T00:58:05.163Z,17.67
2022-07-28T01:00:53.337Z,17.66
2022-07-28T01:03:44.024Z,17.59
2022-07-28T01:06:44.927Z,17.64
2022-07-28T01:09:45.214Z,17.55
2022-07-28T01:12:46.784Z,17.54
2022-07-28T01:15:38.877Z,17.48
2022-07-28T01:18:30.312Z,17.59
2022-07-28T01:21:26.561Z,17.55
2022-07-28T01:24:26.775Z,17.59
2022-07-28T01:27:30.837Z,17.48
2022-07-28T01:30:33.238Z,17.50
2022-07-28T01:33:25.855Z,17.48
2022-07-28T01:36:17.390Z,17.47
2022-07-28T01:39:05.639Z,17.45
2022-07-28T01:41:56.750Z,17.44
2022-07-28T01:44:49.787Z,17.38
2022-07-28T01:47:42.207Z,17.27
2022-07-28T01:50:31.985Z,17.36
2022-07-28T01:53:21.651Z,17.41
2022-07-28T01:56:11.268Z,17.42
2022-07-28T01:59:03.960Z,17.37
2022-07-28T02:01:54.366Z,17.38
2022-07-28T02:04:47.470Z,17.28
2022-07-28T02:07:36.329Z,17.32
2022-07-28T02:10:25.821Z,17.30
2022-07-28T02:13:14.006Z,17.33
2022-07-28T02:16:05.524Z,17.33
2022-07-28T02:18:56.310Z,17.31
2022-07-28T02:21:47.711Z,17.28
2022-07-28T02:24:37.024Z,17.28
2022-07-28T02:27:30.204Z,17.33
2022-07-28T02:30:26.134Z,17.33
2022-07-28T02:33:22.357Z,17.38
2022-07-28T02:36:26.792Z,17.36
2022-07-28T02:39:21.126Z,17.30
2022-07-28T02:42:15.105Z,17.34
2022-07-28T02:45:06.510Z,17.28
2022-07-28T02:47:58.981Z,17.26
2022-07-28T02:50:48.002Z,17.24
2022-07-28T02:53:36.386Z,17.23
2022-07-28T02:56:27.435Z,17.18
2022-07-28T02:59:15.995Z,17.22
2022-07-28T03:02:04.836Z,17.15
2022-07-28T03:05:01.721Z,17.09
2022-07-28T03:07:52.622Z,17.02
2022-07-28T03:10:41.782Z,17.04
2022-07-28T03:13:32.076Z,17.03
2022-07-28T03:16:20.363Z,16.94
2022-07-28T03:19:10.324Z,16.95
2022-07-28T03:21:58.319Z,16.96
2022-07-28T03:24:50.773Z,16.96
2022-07-28T03:27:42.640Z,16.88
2022-07-28T03:30:36.058Z,16.83
2022-07-28T03:33:24.490Z,16.85
2022-07-28T03:36:16.569Z,16.81
2022-07-28T03:39:08.625Z,16.80
2022-07-28T03:41:59.834Z,16.79
2022-07-28T03:44:49.009Z,16.81
2022-07-28T03:47:38.374Z,16.73
2022-07-28T03:50:28.434Z,16.71
2022-07-28T03:53:22.608Z,16.67
2022-07-28T03:56:10.671Z,16.70
2022-07-28T03:58:58.677Z,16.67
2022-07-28T04:01:46.801Z,16.68
2022-07-28T04:04:36.301Z,16.71
2022-07-28T04:07:24.342Z,16.77
2022-07-28T04:10:14.079Z,16.65
2022-07-28T04:13:02.209Z,16.80
2022-07-28T04:15:50.293Z,16.82
2022-07-28T04:18:38.407Z,16.85
2022-07-28T04:21:29.086Z,16.91
2022-07-28T04:24:17.387Z,16.96
2022-07-28T04:27:05.695Z,16.96
2022-07-28T04:29:53.725Z,17.01
2022-07-28T04:32:42.179Z,17.01
2022-07-28T04:35:30.310Z,17.05
2022-07-28T04:38:20.251Z,16.99
2022-07-28T04:41:08.264Z,17.11
2022-07-28T04:43:56.294Z,17.10
2022-07-28T04:46:44.503Z,17.16
2022-07-28T04:49:32.564Z,17.27
2022-07-28T04:52:25.559Z,17.37
2022-07-28T04:55:15.063Z,17.44
2022-07-28T04:58:03.593Z,17.53
2022-07-28T05:00:52.656Z,17.68
2022-07-28T05:03:40.832Z,17.70
2022-07-28T05:06:30.325Z,17.66
2022-07-28T05:09:18.903Z,17.84
2022-07-28T05:12:09.166Z,17.86
2022-07-28T05:14:57.242Z,17.92
2022-07-28T05:17:45.889Z,17.98
2022-07-28T05:20:34.347Z,17.99
2022-07-28T05:23:22.408Z,18.06
2022-07-28T05:26:10.422Z,18.15
2022-07-28T05:28:59.804Z,18.28
2022-07-28T05:31:47.932Z,18.39
2022-07-28T05:34:36.092Z,18.43
2022-07-28T05:37:24.179Z,18.54
2022-07-28T05:40:15.083Z,18.67
2022-07-28T05:43:03.076Z,18.72
2022-07-28T05:45:52.967Z,18.88
2022-07-28T05:48:41.099Z,18.87
2022-07-28T05:51:29.190Z,18.98
2022-07-28T05:54:17.550Z,18.98
2022-07-28T05:57:05.861Z,18.88
2022-07-28T05:59:53.914Z,18.79
2022-07-28T06:02:45.647Z,18.74
2022-07-28T06:05:34.191Z,18.91
2022-07-28T06:08:22.243Z,19.20
2022-07-28T06:11:11.472Z,19.36
2022-07-28T06:13:59.804Z,19.71
2022-07-28T06:16:50.959Z,19.88
2022-07-28T06:19:40.794Z,19.97
2022-07-28T06:22:28.842Z,20.01
2022-07-28T06:25:17.977Z,20.04
2022-07-28T06:28:06.433Z,20.17
2022-07-28T06:30:54.448Z,20.56
2022-07-28T06:33:42.487Z,20.83
2022-07-28T06:36:31.828Z,20.96
2022-07-28T06:39:19.892Z,21.09
2022-07-28T06:42:09.029Z,21.10
2022-07-28T06:44:59.706Z,21.09
2022-07-28T06:47:48.445Z,21.14
2022-07-28T06:50:39.196Z,20.95
2022-07-28T06:53:33.815Z,21.37
2022-07-28T06:56:22.801Z,21.20
2022-07-28T06:59:11.725Z,21.13
2022-07-28T07:02:01.839Z,21.36
2022-07-28T07:04:51.659Z,21.09
2022-07-28T07:07:43.028Z,21.37
2022-07-28T07:10:33.050Z,21.31
2022-07-28T07:13:21.112Z,21.83
2022-07-28T07:16:09.379Z,22.00
2022-07-28T07:18:57.455Z,22.20
2022-07-28T07:21:45.446Z,22.45
2022-07-28T07:24:33.550Z,22.56
2022-07-28T07:27:23.169Z,22.55
2022-07-28T07:30:12.551Z,22.75
2022-07-28T07:33:00.656Z,22.78
2022-07-28T07:35:48.680Z,23.02
2022-07-28T07:38:36.689Z,23.14
2022-07-28T07:41:24.989Z,22.99
2022-07-28T07:44:15.119Z,22.62
2022-07-28T07:47:03.669Z,22.50
2022-07-28T07:49:51.784Z,23.15
2022-07-28T07:52:39.809Z,23.48
2022-07-28T07:55:27.962Z,23.98
2022-07-28T07:58:22.669Z,24.08
2022-07-28T08:01:13.285Z,24.73
2022-07-28T08:04:01.503Z,25.50
2022-07-28T08:06:51.847Z,25.85
2022-07-28T08:09:39.838Z,26.00
2022-07-28T08:12:27.881Z,26.16
2022-07-28T08:15:16.146Z,26.22
2022-07-28T08:18:05.861Z,26.06
2022-07-28T08:20:53.912Z,25.21
2022-07-28T08:23:41.986Z,25.45
2022-07-28T08:26:30.232Z,24.84
2022-07-28T08:29:18.319Z,25.01
2022-07-28T08:32:06.953Z,24.82
2022-07-28T08:35:15.854Z,24.78
2022-07-28T08:38:05.661Z,24.53
2022-07-28T08:40:58.189Z,24.69
2022-07-28T08:43:48.512Z,24.85
2022-07-28T08:46:37.280Z,25.03
2022-07-28T08:49:25.718Z,25.09
2022-07-28T08:52:15.743Z,24.86
2022-07-28T08:55:06.541Z,24.79
2022-07-28T08:57:57.100Z,24.84
2022-07-28T09:00:48.044Z,24.40
2022-07-28T09:03:37.812Z,24.81
2022-07-28T09:06:26.879Z,25.27
2022-07-28T09:09:16.286Z,25.47
2022-07-28T09:12:06.402Z,25.30
2022-07-28T09:14:54.531Z,25.22
2022-07-28T09:17:43.476Z,25.45
2022-07-28T09:20:31.583Z,25.86
2022-07-28T09:23:42.104Z,25.85
2022-07-28T09:26:29.105Z,26.12
2022-07-28T09:29:24.875Z,26.02
2022-07-28T09:32:14.481Z,26.23
2022-07-28T09:35:02.724Z,26.31
2022-07-28T09:38:00.682Z,26.37
2022-07-28T09:40:59.815Z,25.53
2022-07-28T09:43:54.767Z,25.06
2022-07-28T09:46:43.693Z,25.14
2022-07-28T09:49:43.187Z,25.80
2022-07-28T09:52:33.028Z,26.31
2022-07-28T09:55:21.099Z,26.54
2022-07-28T09:58:10.900Z,26.57
2022-07-28T10:01:08.962Z,26.79
2022-07-28T10:03:59.414Z,26.74
2022-07-28T10:07:02.154Z,26.79
2022-07-28T10:09:57.760Z,27.05
2022-07-28T10:12:45.723Z,27.35
2022-07-28T10:15:51.434Z,27.46
2022-07-28T10:18:41.511Z,27.43
2022-07-28T10:21:32.853Z,28.10
2022-07-28T10:24:23.306Z,28.25
2022-07-28T10:27:11.425Z,28.29
2022-07-28T10:30:01.357Z,28.35
2022-07-28T10:32:49.405Z,28.79
2022-07-28T10:35:54.232Z,28.75
2022-07-28T10:38:45.363Z,28.45
2022-07-28T10:41:40.631Z,28.14
2022-07-28T10:44:29.404Z,28.11
2022-07-28T10:47:20.430Z,28.37
2022-07-28T10:50:09.568Z,28.57
2022-07-28T10:52:59.576Z,29.30
2022-07-28T10:55:52.807Z,29.32
2022-07-28T10:59:04.295Z,29.77
2022-07-28T11:01:53.028Z,29.27
2022-07-28T11:04:59.047Z,28.99
2022-07-28T11:07:47.096Z,29.04
2022-07-28T11:10:50.451Z,28.96
2022-07-28T11:13:41.103Z,28.98
2022-07-28T11:16:35.795Z,28.62
2022-07-28T11:19:36.563Z,28.34
2022-07-28T11:22:31.967Z,28.67
2022-07-28T11:25:22.666Z,28.38
2022-07-28T11:28:12.498Z,28.49
2022-07-28T11:31:00.606Z,28.24
2022-07-28T11:33:55.449Z,28.31
2022-07-28T11:37:03.806Z,28.24
2022-07-28T11:39:51.899Z,28.15
2022-07-28T11:42:40.271Z,28.41
2022-07-28T11:45:37.784Z,28.69
2022-07-28T11:48:27.966Z,28.86
2022-07-28T11:51:15.982Z,29.39
2022-07-28T11:54:04.172Z,29.76
2022-07-28T11:56:58.182Z,30.04
2022-07-28T11:59:49.806Z,30.53
2022-07-28T12:02:41.955Z,30.49
2022-07-28T12:05:34.313Z,30.25
2022-07-28T12:08:30.028Z,29.91
2022-07-28T12:11:18.459Z,29.98
2022-07-28T12:14:08.456Z,30.01
2022-07-28T12:16:57.067Z,29.97
2022-07-28T12:19:46.677Z,30.16
2022-07-28T12:22:35.286Z,30.06
2022-07-28T12:25:24.029Z,30.48
2022-07-28T12:28:20.609Z,29.99
2022-07-28T12:31:12.661Z,30.07
2022-07-28T12:34:00.986Z,29.66
2022-07-28T12:36:50.565Z,30.27
2022-07-28T12:39:42.056Z,30.41
2022-07-28T12:42:32.263Z,30.46
2022-07-28T12:45:20.587Z,31.08
2022-07-28T12:48:09.301Z,30.74
2022-07-28T12:50:57.342Z,31.03
2022-07-28T12:53:52.846Z,31.00
2022-07-28T12:56:48.320Z,30.76
2022-07-28T12:59:38.255Z,30.51
2022-07-28T13:02:37.056Z,30.98
2022-07-28T13:05:53.766Z,30.74
2022-07-28T13:08:44.759Z,30.69
2022-07-28T13:11:46.148Z,30.50
2022-07-28T13:14:42.049Z,30.35
2022-07-28T13:17:49.017Z,29.93
2022-07-28T13:20:49.026Z,30.06
2022-07-28T13:23:37.045Z,30.08
2022-07-28T13:26:25.133Z,29.85
2022-07-28T13:29:14.559Z,29.69
2022-07-28T13:32:02.716Z,29.81
2022-07-28T13:34:50.988Z,30.23
2022-07-28T13:37:39.162Z,30.48
2022-07-28T13:40:27.355Z,30.96
2022-07-28T13:43:15.446Z,30.59
2022-07-28T13:46:05.262Z,30.24
2022-07-28T13:48:58.063Z,30.11
2022-07-28T13:51:48.294Z,29.89
2022-07-28T13:54:36.541Z,30.15
2022-07-28T13:57:24.652Z,30.27
2022-07-28T14:00:16.893Z,30.24
2022-07-28T14:03:08.250Z,30.57
2022-07-28T14:05:56.880Z,30.33
2022-07-28T14:08:45.102Z,30.10
2022-07-28T14:11:36.475Z,29.70
2022-07-28T14:14:25.400Z,29.70
2022-07-28T14:17:39.962Z,29.63
2022-07-28T14:20:24.228Z,29.71
2022-07-28T14:23:12.612Z,29.74
2022-07-28T14:26:32.843Z,29.89
2022-07-28T14:29:11.482Z,29.99
2022-07-28T14:32:00.162Z,29.93
2022-07-28T14:34:48.267Z,29.58
2022-07-28T14:38:23.173Z,29.53
2022-07-28T14:40:46.663Z,29.58
2022-07-28T14:43:34.709Z,29.34
2022-07-28T14:46:29.562Z,29.11
2022-07-28T14:49:18.086Z,29.31
2022-07-28T14:52:06.778Z,29.41
2022-07-28T14:54:56.341Z,29.25
2022-07-28T14:57:52.187Z,28.74
2022-07-28T15:00:42.177Z,28.54
2022-07-28T15:03:36.042Z,28.63
2022-07-28T15:06:24.482Z,28.59
2022-07-28T15:09:12.559Z,28.51
2022-07-28T15:12:02.017Z,28.61
2022-07-28T15:14:50.129Z,28.53
2022-07-28T15:17:38.673Z,28.52
2022-07-28T15:20:26.720Z,28.82
2022-07-28T15:23:14.742Z,29.10
2022-07-28T15:26:02.793Z,29.10
2022-07-28T15:28:52.196Z,29.07
2022-07-28T15:31:41.993Z,29.14
2022-07-28T15:34:30.031Z,29.06
2022-07-28T15:37:18.019Z,28.97
2022-07-28T15:40:06.963Z,28.91
2022-07-28T15:42:55.997Z,28.84
2022-07-28T15:45:45.351Z,28.63
2022-07-28T15:48:34.963Z,28.32
2022-07-28T15:51:26.035Z,28.43
2022-07-28T15:54:15.095Z,28.03
2022-07-28T15:57:03.373Z,28.91
2022-07-28T15:59:51.373Z,29.35
2022-07-28T16:02:40.825Z,29.26
2022-07-28T16:05:29.345Z,29.23
2022-07-28T16:08:22.402Z,29.15
2022-07-28T16:11:12.196Z,28.89
2022-07-28T16:14:00.389Z,28.81
2022-07-28T16:16:48.530Z,28.87
2022-07-28T16:19:49.089Z,29.04
2022-07-28T16:22:40.134Z,29.03
2022-07-28T16:25:28.491Z,29.08
2022-07-28T16:28:16.592Z,29.09
2022-07-28T16:31:04.796Z,29.18
2022-07-28T16:33:52.838Z,29.08
2022-07-28T16:36:42.290Z,29.49
2022-07-28T16:39:30.350Z,29.38
2022-07-28T16:42:18.433Z,28.67
2022-07-28T16:45:07.485Z,29.02
2022-07-28T16:47:55.813Z,28.74
2022-07-28T16:50:46.051Z,28.64
2022-07-28T16:53:35.466Z,28.39
2022-07-28T16:56:23.541Z,28.52
2022-07-28T16:59:11.600Z,28.63
2022-07-28T17:01:59.723Z,28.17
2022-07-28T17:04:48.622Z,28.03
2022-07-28T17:07:41.939Z,27.98
2022-07-28T17:10:34.203Z,27.86
2022-07-28T17:13:25.665Z,27.80
2022-07-28T17:16:13.919Z,27.73
2022-07-28T17:19:02.019Z,27.43
2022-07-28T17:21:50.062Z,27.46
2022-07-28T17:24:38.119Z,27.57
2022-07-28T17:27:37.358Z,27.53
2022-07-28T17:30:26.326Z,27.63
2022-07-28T17:33:18.046Z,27.59
2022-07-28T17:36:06.319Z,27.45
2022-07-28T17:38:54.362Z,27.21
2022-07-28T17:41:42.491Z,27.18
2022-07-28T17:44:31.958Z,26.91
2022-07-28T17:47:22.313Z,26.80
2022-07-28T17:50:12.929Z,26.78
2022-07-28T17:53:01.623Z,26.68
2022-07-28T17:56:00.002Z,26.02
2022-07-28T17:58:49.505Z,26.51
2022-07-28T18:01:42.382Z,26.41
2022-07-28T18:04:33.320Z,26.30
2022-07-28T18:07:21.283Z,26.24
2022-07-28T18:10:09.936Z,26.21
2022-07-28T18:12:57.983Z,26.13
2022-07-28T18:15:46.486Z,25.89
2022-07-28T18:18:36.017Z,25.79
2022-07-28T18:21:26.308Z,25.63
2022-07-28T18:24:14.730Z,25.49
2022-07-28T18:27:02.909Z,25.47
2022-07-28T18:29:51.003Z,25.43
2022-07-28T18:32:39.033Z,25.30
2022-07-28T18:35:29.447Z,25.25
2022-07-28T18:38:17.483Z,25.15
2022-07-28T18:41:05.530Z,25.06
2022-07-28T18:43:53.521Z,24.93
2022-07-28T18:46:41.637Z,24.82
2022-07-28T18:49:37.680Z,24.76
2022-07-28T18:52:28.183Z,24.64
2022-07-28T18:55:16.255Z,24.66
2022-07-28T18:58:04.313Z,24.63
2022-07-28T19:00:52.392Z,24.55
2022-07-28T19:03:40.534Z,23.95
2022-07-28T19:06:29.140Z,24.39
2022-07-28T19:09:18.762Z,24.40
2022-07-28T19:12:08.003Z,24.29
2022-07-28T19:14:56.104Z,24.16
2022-07-28T19:17:44.165Z,24.15
2022-07-28T19:20:32.269Z,24.12
2022-07-28T19:23:20.555Z,24.05
2022-07-28T19:26:10.000Z,23.93
2022-07-28T19:28:58.523Z,23.84
2022-07-28T19:31:46.716Z,23.71
2022-07-28T19:34:35.325Z,23.65
2022-07-28T19:37:23.462Z,23.70
2022-07-28T19:40:11.850Z,23.74
2022-07-28T19:43:01.359Z,23.74
2022-07-28T19:45:50.573Z,23.74
2022-07-28T19:48:39.330Z,23.70
2022-07-28T19:51:27.968Z,23.04
2022-07-28T19:54:16.315Z,23.60
2022-07-28T19:57:12.243Z,23.46
2022-07-28T20:00:02.876Z,23.32
2022-07-28T20:02:59.791Z,23.18
2022-07-28T20:05:47.951Z,23.06
2022-07-28T20:08:35.961Z,22.91
2022-07-28T20:11:24.328Z,22.76
2022-07-28T20:14:12.674Z,22.66
2022-07-28T20:17:02.196Z,22.58
2022-07-28T20:19:50.227Z,22.45
2022-07-28T20:22:38.409Z,22.35
2022-07-28T20:25:26.476Z,22.37
2022-07-28T20:28:14.465Z,22.43
2022-07-28T20:31:02.584Z,22.46
2022-07-28T20:33:52.699Z,22.42
2022-07-28T20:36:40.941Z,22.42
2022-07-28T20:39:44.298Z,22.42
2022-07-28T20:42:33.329Z,22.36
2022-07-28T20:45:21.781Z,22.36
2022-07-28T20:48:09.812Z,22.36
2022-07-28T20:51:04.739Z,22.41
2022-07-28T20:53:52.779Z,22.46
2022-07-28T20:56:40.761Z,22.60
2022-07-28T20:59:28.816Z,22.74
2022-07-28T21:02:16.968Z,22.89
2022-07-28T21:05:05.524Z,23.03
2022-07-28T21:08:05.184Z,23.00
2022-07-28T21:10:54.668Z,22.96
2022-07-28T21:13:42.754Z,22.96
2022-07-28T21:16:31.974Z,22.92
2022-07-28T21:19:20.147Z,22.92
2022-07-28T21:22:09.317Z,22.98
2022-07-28T21:24:59.089Z,23.04
2022-07-28T21:28:04.748Z,22.91
2022-07-28T21:30:52.773Z,22.89
2022-07-28T21:33:40.879Z,22.92
2022-07-28T21:36:28.963Z,22.79
2022-07-28T21:39:17.151Z,22.79
2022-07-28T21:42:09.306Z,22.77
2022-07-28T21:44:57.669Z,22.82
2022-07-28T21:47:45.725Z,22.78
2022-07-28T21:50:33.726Z,22.95
2022-07-28T21:53:21.963Z,22.97
2022-07-28T21:56:10.078Z,22.97
2022-07-28T21:58:59.498Z,23.04
2022-07-28T22:01:48.311Z,23.01
2022-07-28T22:04:36.493Z,23.12
2022-07-28T22:07:24.531Z,23.14
2022-07-28T22:10:12.618Z,23.12
2022-07-28T22:13:00.880Z,23.23
2022-07-28T22:15:50.260Z,23.24
2022-07-28T22:18:38.310Z,23.24
2022-07-28T22:21:26.320Z,23.24
2022-07-28T22:24:14.458Z,23.29
2022-07-28T22:27:02.750Z,23.38
2022-07-28T22:29:52.052Z,23.33
2022-07-28T22:32:41.835Z,23.42
2022-07-28T22:35:29.829Z,23.49
2022-07-28T22:38:18.184Z,23.45
2022-07-28T22:41:06.326Z,23.51
2022-07-28T22:43:55.076Z,23.61
2022-07-28T22:46:43.242Z,23.66
2022-07-28T22:49:32.718Z,23.69
2022-07-28T22:52:24.707Z,23.70
2022-07-28T22:55:12.780Z,23.70
2022-07-28T22:58:05.925Z,23.74
2022-07-28T23:00:54.073Z,23.77
2022-07-28T23:03:42.991Z,23.67
2022-07-28T23:06:34.858Z,23.57
2022-07-28T23:09:22.941Z,23.43
2022-07-28T23:12:12.355Z,23.38
2022-07-28T23:15:00.353Z,23.20
2022-07-28T23:17:48.560Z,23.00
2022-07-28T23:20:36.592Z,22.89
2022-07-28T23:23:26.010Z,22.72
2022-07-28T23:26:14.057Z,22.58
2022-07-28T23:29:02.825Z,22.53
2022-07-28T23:31:51.185Z,22.37
2022-07-28T23:34:39.289Z,22.28
2022-07-28T23:37:28.685Z,22.15
2022-07-28T23:40:18.185Z,21.97
2022-07-28T23:43:06.349Z,21.75
2022-07-28T23:45:54.387Z,21.69
2022-07-28T23:48:42.392Z,21.58
2022-07-28T23:51:46.731Z,21.25
2022-07-28T23:54:37.329Z,21.35
2022-07-28T23:57:30.788Z,21.27
